Time;durP1;ratioP1;P1;durP2;ratioP2;P2;SDS_P1;SDS_P2;PMS_P1;PMS_P2;Temp;Humidity;BMP_temperature;BMP_pressure;BME280_temperature;BME280_humidity;BME280_pressure;Samples;Min_cycle;Max_cycle;Signal;HPM_P1;HPM_P2
2022/09/19 00:01:14;;;;;;;18.60;3.53;;;11.70;99.90;;;;;;5060045;28;20049;-71
2022/09/19 00:03:42;;;;;;;;;;;11.70;99.90;;;;;;5058180;28;20120;-70
2022/09/19 00:06:09;;;;;;;29.50;3.92;;;11.60;99.90;;;;;;5054936;28;20007;-71
2022/09/19 00:08:40;;;;;;;25.48;3.70;;;11.70;99.90;;;;;;5068180;28;20427;-70
2022/09/19 00:11:07;;;;;;;26.92;3.55;;;11.60;99.90;;;;;;5074794;28;20055;-71
2022/09/19 00:13:35;;;;;;;28.63;3.50;;;11.60;99.90;;;;;;5062088;28;20083;-71
2022/09/19 00:16:01;;;;;;;23.85;3.70;;;11.50;99.90;;;;;;5063671;28;20417;-71
2022/09/19 00:18:27;;;;;;;22.73;3.83;;;11.50;99.90;;;;;;5040002;28;20056;-71
2022/09/19 00:20:53;;;;;;;23.08;3.60;;;11.50;99.90;;;;;;5061245;28;20514;-71
2022/09/19 00:26:10;;;;;;;21.70;3.70;;;11.50;99.90;;;;;;5067338;28;20055;-71
2022/09/19 00:28:37;;;;;;;23.45;3.28;;;11.40;99.90;;;;;;5063514;28;20531;-71
2022/09/19 00:31:04;;;;;;;20.60;3.13;;;11.40;99.90;;;;;;5086375;28;20491;-71
2022/09/19 00:33:32;;;;;;;22.13;3.28;;;11.40;99.90;;;;;;5060982;28;20135;-71
2022/09/19 00:36:01;;;;;;;23.92;3.67;;;11.50;99.90;;;;;;5055206;28;20049;-71
2022/09/19 00:38:28;;;;;;;17.60;3.33;;;11.60;99.90;;;;;;5040788;28;20080;-71
2022/09/19 00:40:55;;;;;;;17.88;2.85;;;11.60;99.90;;;;;;5068576;28;20063;-71
2022/09/19 00:43:22;;;;;;;21.02;3.53;;;11.50;99.90;;;;;;5076224;28;20053;-70
2022/09/19 00:45:48;;;;;;;18.27;2.83;;;11.50;99.90;;;;;;5074730;28;20132;-70
2022/09/19 00:48:16;;;;;;;19.17;2.78;;;11.60;99.90;;;;;;5043251;28;20044;-71
2022/09/19 00:50:50;;;;;;;17.42;2.95;;;11.60;99.90;;;;;;5066461;28;20127;-72
2022/09/19 00:53:21;;;;;;;20.85;3.15;;;11.60;99.90;;;;;;5075279;28;20066;-73
2022/09/19 00:55:51;;;;;;;19.70;3.17;;;11.60;99.90;;;;;;5061136;28;20195;-72
2022/09/19 00:58:30;;;;;;;22.85;3.55;;;11.50;99.90;;;;;;5035417;28;20080;-72
2022/09/19 01:00:57;;;;;;;22.20;3.40;;;11.60;99.90;;;;;;5051683;28;20044;-72
2022/09/19 01:03:27;;;;;;;25.35;3.70;;;11.60;99.90;;;;;;5062097;28;20075;-72
2022/09/19 01:06:24;;;;;;;19.20;3.28;;;11.70;99.90;;;;;;5072840;28;20040;-72
2022/09/19 01:09:11;;;;;;;22.42;3.15;;;11.70;99.90;;;;;;5068442;28;20041;-69
2022/09/19 01:12:06;;;;;;;11.30;2.30;;;11.70;99.90;;;;;;5072879;28;20041;-72
2022/09/19 01:15:10;;;;;;;17.48;2.53;;;11.70;99.90;;;;;;5071337;28;20043;-69
2022/09/19 01:17:45;;;;;;;12.38;2.25;;;11.60;99.90;;;;;;5034995;28;20048;-72
2022/09/19 01:20:14;;;;;;;12.68;2.40;;;11.60;99.90;;;;;;5039056;28;20057;-72
2022/09/19 01:23:15;;;;;;;20.40;2.78;;;11.50;99.90;;;;;;5044825;28;20140;-72
2022/09/19 01:25:52;;;;;;;22.33;3.13;;;11.50;99.90;;;;;;5049071;28;20052;-72
2022/09/19 01:28:30;;;;;;;16.65;2.92;;;11.50;99.90;;;;;;5036208;28;20385;-70
2022/09/19 01:31:17;;;;;;;14.43;2.38;;;11.50;99.90;;;;;;5052620;28;20045;-73
2022/09/19 01:34:09;;;;;;;14.52;2.60;;;11.50;99.90;;;;;;5051079;28;20527;-72
2022/09/19 01:36:52;;;;;;;22.38;3.25;;;11.60;99.90;;;;;;5029388;28;20506;-73
2022/09/19 01:39:23;;;;;;;13.52;2.13;;;11.50;99.90;;;;;;5040667;28;20053;-73
2022/09/19 01:41:54;;;;;;;15.70;2.67;;;11.50;99.90;;;;;;5049581;28;20049;-73
2022/09/19 01:44:22;;;;;;;20.47;3.57;;;11.60;99.90;;;;;;5051228;28;20068;-71
2022/09/19 01:46:52;;;;;;;20.88;3.40;;;11.50;99.90;;;;;;5033701;28;20643;-71
2022/09/19 01:49:40;;;;;;;22.98;3.45;;;11.60;99.90;;;;;;5049444;28;20076;-71
2022/09/19 01:52:45;;;;;;;25.25;3.80;;;11.60;99.90;;;;;;5050154;28;20056;-72
2022/09/19 01:55:30;;;;;;;25.13;4.43;;;11.60;99.90;;;;;;5039864;28;20099;-72
2022/09/19 01:57:55;;;;;;;19.60;3.92;;;11.60;99.90;;;;;;5035613;28;20033;-73
2022/09/19 02:00:24;;;;;;;26.50;3.65;;;11.60;99.90;;;;;;5052112;28;20056;-70
2022/09/19 02:03:23;;;;;;;21.77;3.22;;;11.60;99.90;;;;;;5046900;28;20111;-73
2022/09/19 02:05:56;;;;;;;9.38;2.50;;;11.50;99.90;;;;;;5029832;28;20053;-72
2022/09/19 02:08:35;;;;;;;13.88;2.15;;;11.70;99.90;;;;;;5024703;28;20140;-72
2022/09/19 02:11:11;;;;;;;14.13;2.10;;;11.60;99.90;;;;;;5067842;28;20131;-72
2022/09/19 02:13:44;;;;;;;11.80;1.88;;;11.60;99.90;;;;;;5062716;28;20059;-71
2022/09/19 02:16:18;;;;;;;16.58;1.85;;;11.60;99.90;;;;;;5058834;28;20496;-73
2022/09/19 02:18:56;;;;;;;11.73;1.73;;;11.50;99.90;;;;;;5048812;28;20045;-72
2022/09/19 02:21:31;;;;;;;9.98;1.60;;;11.60;99.90;;;;;;5051208;28;20056;-72
2022/09/19 02:24:05;;;;;;;11.48;1.50;;;11.60;99.90;;;;;;5051598;28;20055;-71
2022/09/19 02:26:33;;;;;;;14.80;1.80;;;11.60;99.90;;;;;;5044336;28;20076;-72
2022/09/19 02:29:01;;;;;;;14.90;1.75;;;11.50;99.90;;;;;;5038652;28;20103;-72
2022/09/19 02:31:30;;;;;;;15.50;1.88;;;11.60;99.90;;;;;;5049555;28;20578;-72
2022/09/19 02:34:03;;;;;;;12.82;2.10;;;11.50;99.90;;;;;;5050592;28;20044;-71
2022/09/19 02:36:44;;;;;;;13.98;2.08;;;11.60;99.90;;;;;;5038735;28;20369;-72
2022/09/19 02:39:29;;;;;;;17.65;2.63;;;11.60;99.90;;;;;;5083145;28;20102;-72
2022/09/19 02:42:03;;;;;;;20.40;2.55;;;11.70;99.90;;;;;;5050922;28;20057;-72
2022/09/19 02:44:37;;;;;;;16.58;2.47;;;11.60;99.90;;;;;;5055351;28;20052;-72
2022/09/19 02:47:08;;;;;;;20.85;2.90;;;11.70;99.90;;;;;;5041109;28;20044;-72
2022/09/19 02:49:43;;;;;;;;;;;11.70;99.90;;;;;;5048989;28;20492;-73
2022/09/19 02:52:33;;;;;;;20.42;2.83;;;11.80;99.90;;;;;;5050434;28;20354;-72
2022/09/19 02:55:13;;;;;;;18.67;3.53;;;11.70;99.90;;;;;;5033227;28;20067;-72
2022/09/19 02:57:43;;;;;;;19.88;2.80;;;11.70;99.90;;;;;;5032701;28;20056;-73
2022/09/19 03:00:12;;;;;;;24.45;3.60;;;11.70;99.90;;;;;;5049855;28;20049;-72
2022/09/19 03:02:42;;;;;;;17.55;2.88;;;11.70;99.90;;;;;;5049528;28;20496;-72
2022/09/19 03:05:19;;;;;;;25.02;3.33;;;11.70;99.90;;;;;;5039658;28;20394;-72
2022/09/19 03:08:00;;;;;;;23.67;3.63;;;11.70;99.90;;;;;;5014357;28;20049;-72
2022/09/19 03:10:39;;;;;;;20.55;3.58;;;11.70;99.90;;;;;;5033129;28;20041;-73
2022/09/19 03:13:08;;;;;;;20.50;3.17;;;11.70;99.90;;;;;;5048149;28;20045;-73
2022/09/19 03:15:40;;;;;;;25.42;3.78;;;11.70;99.90;;;;;;5049272;28;20059;-72
2022/09/19 03:18:10;;;;;;;17.92;3.50;;;11.80;99.90;;;;;;5034092;28;20045;-73
2022/09/19 03:20:37;;;;;;;25.58;3.40;;;11.80;99.90;;;;;;5059073;28;20593;-74
2022/09/19 03:23:04;;;;;;;23.42;3.67;;;11.80;99.90;;;;;;5029592;28;20048;-73
2022/09/19 03:25:30;;;;;;;23.00;3.75;;;11.90;99.90;;;;;;5040757;28;20049;-74
2022/09/19 03:27:56;;;;;;;17.83;3.05;;;11.90;99.90;;;;;;4996788;28;20152;-72
2022/09/19 03:30:22;;;;;;;16.73;3.30;;;12.00;99.90;;;;;;5030063;28;20504;-72
2022/09/19 03:32:48;;;;;;;20.08;3.40;;;12.00;99.90;;;;;;5045268;28;20103;-73
2022/09/19 03:35:14;;;;;;;23.88;3.50;;;12.00;99.90;;;;;;5050250;28;20597;-72
2022/09/19 03:37:40;;;;;;;27.88;4.00;;;12.00;99.90;;;;;;5033088;28;20084;-72
2022/09/19 03:40:06;;;;;;;14.73;3.33;;;12.00;99.90;;;;;;5049029;28;20053;-73
2022/09/19 03:42:34;;;;;;;20.70;3.28;;;11.90;99.90;;;;;;5048970;28;20419;-74
2022/09/19 03:45:09;;;;;;;19.67;3.25;;;11.80;99.90;;;;;;5048896;28;20519;-74
2022/09/19 03:47:35;;;;;;;22.60;3.75;;;11.90;99.90;;;;;;5022456;28;20089;-73
2022/09/19 03:50:01;;;;;;;27.23;3.53;;;11.90;99.90;;;;;;5029265;28;20448;-73
2022/09/19 03:52:27;;;;;;;20.27;3.97;;;11.90;99.90;;;;;;5040785;28;20861;-72
2022/09/19 03:54:54;;;;;;;27.88;4.28;;;11.90;99.90;;;;;;5041566;28;20094;-71
2022/09/19 03:57:20;;;;;;;22.20;3.42;;;11.80;99.90;;;;;;5042218;28;20052;-71
2022/09/19 03:59:45;;;;;;;19.42;3.22;;;11.80;99.90;;;;;;5049833;28;20041;-71
2022/09/19 04:02:11;;;;;;;22.08;3.30;;;11.90;99.90;;;;;;5049260;28;20060;-71
2022/09/19 04:04:38;;;;;;;20.67;3.25;;;11.80;99.90;;;;;;5055434;28;20048;-71
2022/09/19 04:07:04;;;;;;;23.05;3.28;;;11.90;99.90;;;;;;5053600;28;20526;-70
2022/09/19 04:09:29;;;;;;;20.08;3.25;;;11.80;99.90;;;;;;5048726;28;20439;-72
2022/09/19 04:11:56;;;;;;;19.40;2.85;;;11.80;99.90;;;;;;5048022;28;20063;-72
2022/09/19 04:14:22;;;;;;;26.38;4.20;;;11.80;99.90;;;;;;5029101;28;20057;-72
2022/09/19 04:16:48;;;;;;;20.83;3.65;;;11.90;99.90;;;;;;5034200;28;20033;-71
2022/09/19 04:19:15;;;;;;;20.80;3.47;;;11.80;99.90;;;;;;5048708;28;20545;-72
2022/09/19 04:21:41;;;;;;;18.65;3.20;;;11.80;99.90;;;;;;5048499;28;20049;-72
2022/09/19 04:24:08;;;;;;;22.88;3.92;;;11.80;99.90;;;;;;5048638;28;20040;-70
2022/09/19 04:26:34;;;;;;;25.70;4.43;;;11.80;99.90;;;;;;5035781;28;20041;-72
2022/09/19 04:29:02;;;;;;;29.20;4.45;;;11.80;99.90;;;;;;5047239;28;20040;-73
2022/09/19 04:31:35;;;;;;;30.58;4.47;;;11.80;99.90;;;;;;5049556;28;20411;-71
2022/09/19 04:34:02;;;;;;;33.35;5.75;;;11.90;99.90;;;;;;5051761;28;20492;-72
2022/09/19 04:36:31;;;;;;;27.17;4.80;;;11.80;99.90;;;;;;5041266;28;20045;-69
2022/09/19 04:39:02;;;;;;;32.75;4.97;;;11.90;99.90;;;;;;5052124;28;20049;-70
2022/09/19 04:41:32;;;;;;;;;;;11.80;99.90;;;;;;5053465;28;20045;-71
2022/09/19 04:43:58;;;;;;;24.27;4.60;;;11.80;99.90;;;;;;5065752;28;20016;-71
2022/09/19 04:46:24;;;;;;;30.05;4.28;;;11.80;99.90;;;;;;5036087;28;20041;-71
2022/09/19 04:48:51;;;;;;;31.88;4.72;;;11.90;99.90;;;;;;5047203;28;20061;-70
2022/09/19 04:51:17;;;;;;;24.52;3.78;;;11.80;99.90;;;;;;5049756;28;20450;-70
2022/09/19 04:53:43;;;;;;;24.48;4.22;;;11.80;99.90;;;;;;5031123;28;20049;-70
2022/09/19 04:56:12;;;;;;;23.83;3.47;;;11.80;99.90;;;;;;5027896;28;20072;-70
2022/09/19 04:58:40;;;;;;;23.40;3.72;;;11.70;99.90;;;;;;5032852;28;20497;-69
2022/09/19 05:01:07;;;;;;;26.08;3.28;;;11.70;99.90;;;;;;5031898;28;20056;-69
2022/09/19 05:03:33;;;;;;;29.60;3.92;;;11.60;99.90;;;;;;5043529;28;20049;-71
2022/09/19 05:05:59;;;;;;;22.98;3.53;;;11.80;99.90;;;;;;5052636;28;20064;-71
2022/09/19 05:08:27;;;;;;;26.65;3.95;;;11.70;99.90;;;;;;5036365;28;20045;-71
2022/09/19 05:10:55;;;;;;;25.90;3.67;;;11.80;99.90;;;;;;5038034;28;20060;-70
2022/09/19 05:13:27;;;;;;;20.95;3.78;;;11.70;99.90;;;;;;5040562;28;20128;-71
2022/09/19 05:15:54;;;;;;;25.35;3.72;;;11.70;99.90;;;;;;5051541;28;20073;-71
2022/09/19 05:18:21;;;;;;;16.15;3.63;;;11.80;99.90;;;;;;5010710;28;20480;-71
2022/09/19 05:20:52;;;;;;;17.65;3.05;;;11.80;99.90;;;;;;5033390;28;20555;-71
2022/09/19 05:23:19;;;;;;;19.55;3.10;;;11.80;99.90;;;;;;5031853;28;20045;-72
2022/09/19 05:25:45;;;;;;;17.83;2.90;;;11.80;99.90;;;;;;5052927;28;20048;-71
2022/09/19 05:28:11;;;;;;;17.83;2.40;;;11.80;99.90;;;;;;5022660;28;20053;-71
2022/09/19 05:30:45;;;;;;;12.43;2.80;;;11.80;99.90;;;;;;5039687;28;20396;-71
2022/09/19 05:33:11;;;;;;;12.27;2.80;;;11.80;99.90;;;;;;5051763;28;20135;-71
2022/09/19 05:35:37;;;;;;;20.92;3.17;;;11.80;99.90;;;;;;5068107;28;20037;-69
2022/09/19 05:38:03;;;;;;;16.95;3.22;;;11.70;99.90;;;;;;5036992;28;20041;-71
2022/09/19 05:40:29;;;;;;;18.80;3.22;;;11.70;99.90;;;;;;5050967;28;20416;-73
2022/09/19 05:42:59;;;;;;;20.00;3.13;;;11.80;99.90;;;;;;5049475;28;20049;-72
2022/09/19 05:45:26;;;;;;;20.53;2.83;;;11.80;99.90;;;;;;5041492;28;20057;-72
2022/09/19 05:47:51;;;;;;;20.73;3.33;;;11.80;99.90;;;;;;5033126;28;20057;-72
2022/09/19 05:50:17;;;;;;;20.92;3.10;;;11.70;99.90;;;;;;5058519;28;20047;-71
2022/09/19 05:55:47;;;;;;;23.00;3.63;;;11.70;99.90;;;;;;4986396;28;20176;-71
2022/09/19 05:58:15;;;;;;;19.27;3.65;;;11.80;99.90;;;;;;4944255;28;20047;-71
2022/09/19 06:00:40;;;;;;;23.73;3.95;;;11.80;99.90;;;;;;4999591;28;20124;-70
2022/09/19 06:03:09;;;;;;;24.40;3.55;;;11.90;99.90;;;;;;5064138;28;20167;-70
2022/09/19 06:05:40;;;;;;;21.48;3.45;;;11.90;99.90;;;;;;5064613;28;20052;-71
2022/09/19 06:08:07;;;;;;;24.67;3.25;;;11.90;99.90;;;;;;5048725;28;20117;-71
2022/09/19 06:10:38;;;;;;;22.98;3.58;;;11.90;99.90;;;;;;5062314;28;20049;-71
2022/09/19 06:13:04;;;;;;;15.35;3.13;;;12.00;99.90;;;;;;5057398;28;20199;-71
2022/09/19 06:15:30;;;;;;;18.05;3.63;;;12.00;99.90;;;;;;5062637;28;20047;-70
2022/09/19 06:17:57;;;;;;;17.52;4.10;;;12.00;99.90;;;;;;5047755;28;20439;-71
2022/09/19 06:20:23;;;;;;;18.92;2.88;;;12.00;99.90;;;;;;5061116;28;20170;-72
2022/09/19 06:22:50;;;;;;;17.67;2.58;;;11.90;99.90;;;;;;5063583;28;20131;-70
2022/09/19 06:25:16;;;;;;;17.67;3.00;;;11.80;99.90;;;;;;5064525;28;20108;-72
2022/09/19 06:27:46;;;;;;;15.68;2.97;;;11.80;99.90;;;;;;5028077;28;20527;-73
2022/09/19 06:30:12;;;;;;;14.63;2.53;;;11.70;99.90;;;;;;5023525;28;20076;-73
2022/09/19 06:32:38;;;;;;;14.68;1.90;;;11.70;99.90;;;;;;5030971;28;20049;-71
2022/09/19 06:35:04;;;;;;;14.65;2.58;;;11.70;99.90;;;;;;5025015;28;20087;-72
2022/09/19 06:37:30;;;;;;;15.10;2.63;;;11.70;99.90;;;;;;5011666;28;20516;-72
2022/09/19 06:39:56;;;;;;;15.93;2.40;;;11.70;99.90;;;;;;5035732;28;20045;-71
2022/09/19 06:42:22;;;;;;;16.42;2.67;;;11.70;99.90;;;;;;5031111;28;20095;-71
2022/09/19 06:44:49;;;;;;;19.08;2.22;;;11.70;99.90;;;;;;5036558;28;20057;-71
2022/09/19 06:47:15;;;;;;;16.42;2.65;;;11.80;99.90;;;;;;5020647;28;20052;-71
2022/09/19 06:49:41;;;;;;;15.70;2.90;;;11.80;99.90;;;;;;5030789;28;20060;-70
2022/09/19 06:52:07;;;;;;;14.75;2.80;;;11.70;99.90;;;;;;5023457;28;20501;-70
2022/09/19 06:54:33;;;;;;;19.77;3.05;;;11.70;99.90;;;;;;5040303;28;20056;-69
2022/09/19 06:56:59;;;;;;;18.10;2.92;;;11.80;99.90;;;;;;5019764;28;20041;-69
2022/09/19 06:59:25;;;;;;;21.77;3.55;;;11.80;99.90;;;;;;5026377;28;20037;-70
2022/09/19 07:01:51;;;;;;;25.23;3.95;;;12.00;99.90;;;;;;5034437;28;20053;-69
2022/09/19 07:04:18;;;;;;;25.58;3.55;;;12.10;99.90;;;;;;5024713;28;20053;-70
2022/09/19 07:06:44;;;;;;;27.42;4.07;;;12.20;99.90;;;;;;5011469;28;20048;-71
2022/09/19 07:09:10;;;;;;;26.70;3.88;;;12.30;99.90;;;;;;5028061;28;20048;-70
2022/09/19 07:11:36;;;;;;;16.65;3.47;;;12.40;99.90;;;;;;5040172;28;20049;-70
2022/09/19 07:14:05;;;;;;;29.13;4.28;;;12.50;99.90;;;;;;5028285;28;20594;-71
2022/09/19 07:16:31;;;;;;;22.17;3.08;;;12.50;99.90;;;;;;5022075;28;20937;-71
2022/09/19 07:18:57;;;;;;;15.27;3.10;;;12.60;99.90;;;;;;5035752;28;20073;-71
2022/09/19 07:21:23;;;;;;;20.17;3.70;;;12.70;99.90;;;;;;5028204;28;20075;-71
2022/09/19 07:23:49;;;;;;;22.38;3.25;;;12.80;99.90;;;;;;5025644;28;20543;-71
2022/09/19 07:26:15;;;;;;;22.70;3.58;;;12.90;99.90;;;;;;5026573;28;20426;-71
2022/09/19 07:28:41;;;;;;;27.15;3.50;;;12.80;99.90;;;;;;5026131;28;20322;-71
2022/09/19 07:31:06;;;;;;;21.23;3.35;;;12.80;99.90;;;;;;5009676;28;20041;-71
2022/09/19 07:33:32;;;;;;;24.55;3.30;;;12.70;99.90;;;;;;5035908;28;20063;-72
2022/09/19 07:35:58;;;;;;;23.55;3.72;;;12.70;99.90;;;;;;5033244;28;20389;-72
2022/09/19 07:38:26;;;;;;;25.02;3.45;;;12.70;99.90;;;;;;5021326;28;20108;-73
2022/09/19 07:40:53;;;;;;;21.55;3.88;;;12.70;99.90;;;;;;5025543;28;20072;-72
2022/09/19 07:43:19;;;;;;;26.00;3.50;;;12.60;99.90;;;;;;5029542;28;20046;-72
2022/09/19 07:45:47;;;;;;;20.38;3.47;;;12.60;99.90;;;;;;5038151;28;20049;-72
2022/09/19 07:48:13;;;;;;;17.98;2.92;;;12.50;99.90;;;;;;5005218;28;20041;-72
2022/09/19 07:50:39;;;;;;;25.55;3.13;;;12.50;99.90;;;;;;5045238;28;20045;-72
2022/09/19 07:53:18;;;;;;;20.55;3.72;;;12.60;99.90;;;;;;5045647;28;20048;-72
2022/09/19 07:55:54;;;;;;;21.00;3.42;;;12.50;99.90;;;;;;5032709;28;20045;-71
2022/09/19 07:58:22;;;;;;;22.17;3.33;;;12.50;99.90;;;;;;5028009;28;20045;-72
2022/09/19 08:00:49;;;;;;;26.73;3.83;;;12.60;99.90;;;;;;5038059;28;20045;-72
2022/09/19 08:03:16;;;;;;;21.23;3.08;;;12.70;99.90;;;;;;5036523;28;20497;-72
2022/09/19 08:05:44;;;;;;;21.23;3.55;;;12.90;99.90;;;;;;5033294;28;20136;-72
2022/09/19 08:08:12;;;;;;;23.52;3.78;;;13.00;99.90;;;;;;5030619;28;20037;-72
2022/09/19 08:10:39;;;;;;;20.35;3.60;;;13.10;99.90;;;;;;5046618;28;20504;-73
2022/09/19 08:13:07;;;;;;;21.13;3.45;;;13.20;99.90;;;;;;5046048;28;20079;-72
2022/09/19 08:15:34;;;;;;;18.88;3.20;;;13.30;99.90;;;;;;5040971;28;20048;-73
2022/09/19 08:18:05;;;;;;;21.35;4.07;;;13.50;99.90;;;;;;5032529;28;20126;-73
2022/09/19 08:20:33;;;;;;;21.85;3.45;;;13.60;99.90;;;;;;5047738;28;20123;-71
2022/09/19 08:23:02;;;;;;;14.55;3.00;;;13.70;99.90;;;;;;5047926;28;20037;-73
2022/09/19 08:25:31;;;;;;;11.75;2.63;;;13.80;99.90;;;;;;5032678;28;20500;-73
2022/09/19 08:27:57;;;;;;;15.15;3.08;;;13.80;99.90;;;;;;5022005;28;20523;-73
2022/09/19 08:30:24;;;;;;;13.82;2.60;;;13.80;99.90;;;;;;5048782;28;20053;-73
2022/09/19 08:32:50;;;;;;;14.77;2.55;;;13.80;99.90;;;;;;5048916;28;20037;-73
2022/09/19 08:35:17;;;;;;;15.90;2.50;;;13.80;99.90;;;;;;5049682;28;20399;-73
2022/09/19 08:37:44;;;;;;;13.10;2.50;;;13.70;99.90;;;;;;5029500;28;20076;-74
2022/09/19 08:40:30;;;;;;;17.92;2.75;;;13.70;99.90;;;;;;5030807;28;20049;-74
2022/09/19 08:43:02;;;;;;;20.90;2.70;;;13.80;99.90;;;;;;5046295;28;20044;-73
2022/09/19 08:45:47;;;;;;;13.40;2.50;;;13.90;99.90;;;;;;5041617;28;20423;-73
2022/09/19 08:48:27;;;;;;;11.48;2.30;;;14.00;99.90;;;;;;5030029;28;20443;-74
2022/09/19 08:51:01;;;;;;;17.40;2.50;;;14.10;99.90;;;;;;5047755;28;20083;-71
2022/09/19 08:53:37;;;;;;;16.45;2.40;;;14.20;99.90;;;;;;5034773;28;20552;-74
2022/09/19 08:56:04;;;;;;;16.33;2.63;;;14.20;99.90;;;;;;5049608;28;20155;-71
2022/09/19 08:58:34;;;;;;;18.35;3.15;;;14.50;99.90;;;;;;5024180;28;20077;-72
2022/09/19 09:01:02;;;;;;;16.23;2.97;;;14.60;99.90;;;;;;5063194;28;20074;-74
2022/09/19 09:03:42;;;;;;;15.30;2.90;;;14.50;99.90;;;;;;5035835;28;20052;-73
2022/09/19 09:06:23;;;;;;;14.55;2.60;;;14.40;99.90;;;;;;5045950;28;20056;-73
2022/09/19 09:09:04;;;;;;;12.93;3.08;;;14.40;99.90;;;;;;5043147;28;20045;-74
2022/09/19 09:11:49;;;;;;;11.55;2.97;;;14.30;99.90;;;;;;5041390;28;20103;-72
2022/09/19 09:14:50;;;;;;;15.25;2.65;;;14.30;99.90;;;;;;5027596;28;20091;-71
2022/09/19 09:17:46;;;;;;;13.00;2.90;;;14.10;99.90;;;;;;5015494;28;20493;-74
2022/09/19 09:20:31;;;;;;;10.95;2.33;;;14.00;99.90;;;;;;5005649;28;20062;-73
2022/09/19 09:23:06;;;;;;;14.73;2.92;;;14.00;99.90;;;;;;5036715;28;20141;-71
2022/09/19 09:25:35;;;;;;;14.60;2.55;;;14.10;99.90;;;;;;5034272;28;20069;-73
2022/09/19 09:28:12;;;;;;;14.68;2.65;;;14.00;99.90;;;;;;5011197;28;20308;-73
2022/09/19 09:30:44;;;;;;;13.02;2.70;;;13.80;99.90;;;;;;5045413;28;20044;-72
2022/09/19 09:33:30;;;;;;;15.70;2.70;;;13.80;99.90;;;;;;5041122;28;20041;-74
2022/09/19 09:36:31;;;;;;;22.20;2.58;;;13.80;99.90;;;;;;5047556;28;20308;-73
2022/09/19 09:39:02;;;;;;;11.80;2.35;;;13.70;99.90;;;;;;5034804;28;20069;-72
2022/09/19 09:41:45;;;;;;;11.35;2.63;;;13.70;99.90;;;;;;5045288;28;20092;-74
2022/09/19 09:44:13;;;;;;;19.40;2.45;;;13.70;99.90;;;;;;5055341;28;20040;-74
2022/09/19 09:46:53;;;;;;;23.60;3.88;;;13.70;99.90;;;;;;5038220;28;20064;-73
2022/09/19 09:49:22;;;;;;;17.77;3.58;;;13.60;99.90;;;;;;5045584;28;20128;-74
2022/09/19 09:51:59;;;;;;;16.60;2.88;;;13.60;99.90;;;;;;5066491;28;20499;-74
2022/09/19 09:57:48;;;;;;;14.00;3.20;;;13.60;99.90;;;;;;5048571;28;20095;-74
2022/09/19 10:03:36;;;;;;;21.88;3.78;;;13.60;99.90;;;;;;5053185;28;20040;-73
2022/09/19 10:06:15;;;;;;;20.40;3.13;;;13.60;99.90;;;;;;5062277;28;20109;-74
2022/09/19 10:09:02;;;;;;;19.23;3.30;;;13.60;99.90;;;;;;5058517;28;20137;-74
2022/09/19 10:11:48;;;;;;;23.60;3.50;;;13.60;99.90;;;;;;5050646;28;20049;-74
2022/09/19 10:14:23;;;;;;;24.27;3.25;;;13.60;99.90;;;;;;5046073;28;20132;-74
2022/09/19 10:16:53;;;;;;;16.67;3.03;;;13.60;99.90;;;;;;5029174;28;20064;-74
2022/09/19 10:19:35;;;;;;;15.25;2.47;;;13.60;99.90;;;;;;5042540;28;20045;-75
2022/09/19 10:22:01;;;;;;;16.20;2.50;;;13.70;99.90;;;;;;5045571;28;20827;-75
2022/09/19 10:24:51;;;;;;;13.70;2.80;;;13.90;99.90;;;;;;5056782;28;20056;-74
2022/09/19 10:27:38;;;;;;;18.70;2.70;;;14.30;99.90;;;;;;5050103;28;20115;-74
2022/09/19 10:30:24;;;;;;;12.38;2.08;;;14.60;99.90;;;;;;5064118;28;20106;-72
2022/09/19 10:32:51;;;;;;;11.50;2.25;;;14.40;99.90;;;;;;5065338;28;20044;-72
2022/09/19 10:35:36;;;;;;;12.75;2.50;;;14.40;99.90;;;;;;5064904;28;20044;-71
2022/09/19 10:38:13;;;;;;;16.35;2.83;;;14.50;99.90;;;;;;5048287;28;20515;-72
2022/09/19 10:40:58;;;;;;;15.52;2.60;;;14.60;99.90;;;;;;5055927;28;20066;-71
2022/09/19 10:43:31;;;;;;;18.63;3.03;;;14.60;99.90;;;;;;5044096;28;20045;-73
2022/09/19 10:46:06;;;;;;;10.70;2.78;;;14.70;99.90;;;;;;5036186;28;20492;-72
2022/09/19 10:48:36;;;;;;;13.23;2.40;;;14.80;99.90;;;;;;5023916;28;20567;-72
2022/09/19 10:51:08;;;;;;;12.93;2.70;;;14.90;99.90;;;;;;5034386;28;20061;-72
2022/09/19 10:53:38;;;;;;;15.27;2.70;;;14.90;99.90;;;;;;5045208;28;20044;-72
2022/09/19 10:56:26;;;;;;;14.75;3.00;;;14.80;99.90;;;;;;5063374;28;20465;-73
2022/09/19 10:59:05;;;;;;;19.25;3.25;;;14.80;99.90;;;;;;5058039;28;20051;-73
2022/09/19 11:01:31;;;;;;;17.80;2.78;;;14.80;99.90;;;;;;5062930;28;20114;-73
2022/09/19 11:04:04;;;;;;;19.60;3.42;;;14.90;99.90;;;;;;5064405;28;20044;-73
2022/09/19 11:06:31;;;;;;;17.27;2.97;;;15.00;99.90;;;;;;5068029;28;20049;-71
2022/09/19 11:08:57;;;;;;;13.80;2.28;;;14.90;99.90;;;;;;5062726;28;20052;-70
2022/09/19 11:11:37;;;;;;;9.18;2.13;;;14.80;99.90;;;;;;5066631;28;20492;-72
2022/09/19 11:14:07;;;;;;;13.50;2.78;;;14.80;99.90;;;;;;5063477;28;20056;-73
2022/09/19 11:16:45;;;;;;;13.88;2.80;;;14.70;99.90;;;;;;5052339;28;20484;-71
2022/09/19 11:19:49;;;;;;;17.48;2.28;;;14.60;99.90;;;;;;5047289;28;20048;-73
2022/09/19 11:23:03;;;;;;;12.23;2.15;;;14.70;99.90;;;;;;5063508;28;20514;-72
2022/09/19 11:25:38;;;;;;;11.70;2.58;;;14.90;99.90;;;;;;5064548;28;20127;-72
2022/09/19 11:28:35;;;;;;;12.32;2.15;;;14.90;99.90;;;;;;5050105;28;20052;-73
2022/09/19 11:31:28;;;;;;;11.13;2.15;;;14.90;99.90;;;;;;5045694;28;20052;-73
2022/09/19 11:34:02;;;;;;;16.30;2.22;;;14.70;99.90;;;;;;5062825;28;20481;-73
2022/09/19 11:36:46;;;;;;;14.05;2.13;;;14.60;99.90;;;;;;5052454;28;20564;-73
2022/09/19 11:39:19;;;;;;;12.45;2.20;;;14.80;99.90;;;;;;5064956;28;20045;-73
2022/09/19 11:42:06;;;;;;;16.75;2.38;;;14.90;99.90;;;;;;5066724;28;20072;-72
2022/09/19 11:44:46;;;;;;;10.10;2.33;;;15.10;99.90;;;;;;5063886;28;20296;-72
2022/09/19 11:48:00;;;;;;;13.80;2.17;;;15.10;99.90;;;;;;5049189;28;20095;-71
2022/09/19 11:50:56;;;;;;;7.45;2.00;;;15.00;99.90;;;;;;5005303;28;20060;-71
2022/09/19 11:53:46;;;;;;;17.98;2.60;;;15.10;99.90;;;;;;5024995;28;20053;-73
2022/09/19 11:56:36;;;;;;;13.65;2.25;;;15.30;99.90;;;;;;5052968;28;20056;-73
2022/09/19 11:59:28;;;;;;;14.15;2.47;;;15.50;99.90;;;;;;5061049;28;20045;-71
2022/09/19 12:02:18;;;;;;;12.38;2.55;;;15.60;99.90;;;;;;5063330;28;20132;-73
2022/09/19 12:05:17;;;;;;;12.80;2.65;;;15.70;99.90;;;;;;5063082;28;20076;-72
2022/09/19 12:07:54;;;;;;;14.88;2.47;;;15.90;99.90;;;;;;5031979;28;20530;-73
2022/09/19 12:10:59;;;;;;;17.42;2.45;;;15.70;99.90;;;;;;5068144;28;20092;-74
2022/09/19 12:13:40;;;;;;;14.82;2.67;;;15.60;99.90;;;;;;5022828;28;20349;-73
2022/09/19 12:16:10;;;;;;;16.08;2.65;;;15.40;99.90;;;;;;5067426;28;20093;-73
2022/09/19 12:18:50;;;;;;;14.68;2.50;;;15.30;99.90;;;;;;5055373;28;20520;-72
2022/09/19 12:21:22;;;;;;;12.52;2.30;;;15.10;99.90;;;;;;5061515;28;20053;-74
2022/09/19 12:27:12;;;;;;;13.45;2.55;;;15.10;99.90;;;;;;5048640;28;20675;-70
2022/09/19 12:30:07;;;;;;;12.75;2.25;;;15.10;99.90;;;;;;5059243;28;20045;-71
2022/09/19 12:32:47;;;;;;;14.18;2.40;;;15.20;99.90;;;;;;5042750;28;20049;-69
2022/09/19 12:35:25;;;;;;;8.43;1.85;;;15.10;99.90;;;;;;5046889;28;20045;-71
2022/09/19 12:37:54;;;;;;;10.68;2.40;;;15.00;99.90;;;;;;5027217;28;20140;-71
2022/09/19 12:40:35;;;;;;;8.80;2.17;;;15.10;99.90;;;;;;5045619;28;20048;-72
2022/09/19 12:43:13;;;;;;;18.92;2.20;;;15.00;99.90;;;;;;5043537;28;20060;-72
2022/09/19 12:45:53;;;;;;;14.05;2.78;;;14.90;99.90;;;;;;5043773;28;20106;-72
2022/09/19 12:48:42;;;;;;;16.77;3.03;;;14.80;99.90;;;;;;5026332;28;20049;-71
2022/09/19 12:51:11;;;;;;;12.63;2.38;;;14.80;99.90;;;;;;5039865;28;20337;-75
2022/09/19 12:53:54;;;;;;;14.52;2.90;;;14.90;99.90;;;;;;5043556;28;20056;-75
2022/09/19 12:56:30;;;;;;;15.60;2.70;;;15.00;99.90;;;;;;5037809;28;20045;-72
2022/09/19 12:59:24;;;;;;;12.20;2.47;;;15.20;99.90;;;;;;5043763;28;20076;-74
2022/09/19 13:02:23;;;;;;;12.27;2.33;;;15.20;99.90;;;;;;5049580;28;20383;-74
2022/09/19 13:05:05;;;;;;;13.70;2.65;;;15.30;99.90;;;;;;5044646;28;20115;-73
2022/09/19 13:07:31;;;;;;;;;;;15.20;99.90;;;;;;5031532;28;20049;-73
2022/09/19 13:10:17;;;;;;;12.98;2.28;;;15.10;99.90;;;;;;5047566;28;19928;-72
2022/09/19 13:13:11;;;;;;;13.23;2.38;;;14.90;99.90;;;;;;5047156;28;20114;-72
2022/09/19 13:15:59;;;;;;;8.93;2.00;;;14.70;99.90;;;;;;5046079;28;20060;-73
2022/09/19 13:24:12;;;;;;;5.05;1.02;;;14.60;99.90;;;;;;5049270;28;20079;-73
2022/09/19 13:26:39;;;;;;;5.22;1.17;;;14.50;99.90;;;;;;5033465;28;21012;-72
2022/09/19 13:29:26;;;;;;;8.25;1.48;;;14.60;99.90;;;;;;5043813;28;20047;-73
2022/09/19 13:31:59;;;;;;;13.63;2.20;;;14.70;99.90;;;;;;5045586;28;20057;-71